createdAt,value
2019-03-05T00:00:08.974Z,0
2019-03-05T00:00:49.291Z,0
2019-03-05T00:01:31.440Z,0
2019-03-05T00:02:12.909Z,0
2019-03-05T00:02:56.962Z,0
2019-03-05T00:03:37.814Z,0
2019-03-05T00:04:19.219Z,0
2019-03-05T00:05:01.599Z,0
2019-03-05T00:05:44.098Z,0
2019-03-05T00:06:24.418Z,0
2019-03-05T00:07:07.335Z,0
2019-03-05T00:07:47.605Z,0
2019-03-05T00:08:28.237Z,0
2019-03-05T00:09:18.734Z,0
2019-03-05T00:10:00.357Z,0
2019-03-05T00:10:40.621Z,0
2019-03-05T00:11:22.026Z,0
2019-03-05T00:12:03.456Z,0
2019-03-05T00:12:43.900Z,0
2019-03-05T00:13:25.197Z,0
2019-03-05T00:14:05.536Z,0
2019-03-05T00:14:47.882Z,0
2019-03-05T00:15:28.211Z,0
2019-03-05T00:16:09.568Z,0
2019-03-05T00:16:49.976Z,0
2019-03-05T00:17:30.999Z,0
2019-03-05T00:18:11.424Z,0
2019-03-05T00:18:53.071Z,0
2019-03-05T00:19:33.488Z,0
2019-03-05T00:20:14.226Z,0
2019-03-05T00:20:54.596Z,0
2019-03-05T00:21:36.945Z,0
2019-03-05T00:22:18.468Z,0
2019-03-05T00:23:00.337Z,0
2019-03-05T00:23:42.535Z,0
2019-03-05T00:24:22.975Z,0
2019-03-05T00:25:03.836Z,0
2019-03-05T00:25:44.209Z,0
2019-03-05T00:26:24.635Z,0
2019-03-05T00:27:05.322Z,0
2019-03-05T00:27:45.956Z,0
2019-03-05T00:28:26.383Z,0
2019-03-05T00:29:06.731Z,0
2019-03-05T00:29:49.165Z,0
2019-03-05T00:30:30.388Z,0
2019-03-05T00:31:11.065Z,0
2019-03-05T00:31:52.595Z,0
2019-03-05T00:32:33.075Z,0
2019-03-05T00:33:13.603Z,0
2019-03-05T00:33:53.992Z,0
2019-03-05T00:34:34.372Z,0
2019-03-05T00:35:14.769Z,0
2019-03-05T00:35:55.564Z,0
2019-03-05T00:36:39.455Z,0
2019-03-05T00:37:19.933Z,0
2019-03-05T00:38:00.385Z,0
2019-03-05T00:38:42.748Z,0
2019-03-05T00:39:23.006Z,0
2019-03-05T00:40:05.247Z,0
2019-03-05T00:40:47.561Z,0
2019-03-05T00:41:28.024Z,0
2019-03-05T00:42:11.550Z,0
2019-03-05T00:42:51.929Z,0
2019-03-05T00:43:33.942Z,0
2019-03-05T00:44:14.381Z,0
2019-03-05T00:44:54.729Z,0
2019-03-05T00:45:37.057Z,0
2019-03-05T00:46:18.533Z,0
2019-03-05T00:47:01.539Z,0
2019-03-05T00:47:41.949Z,0
2019-03-05T00:48:22.329Z,0
2019-03-05T00:49:02.706Z,0
2019-03-05T00:49:43.154Z,0
2019-03-05T00:50:24.537Z,0
2019-03-05T00:51:09.440Z,0
2019-03-05T00:51:50.018Z,0
2019-03-05T00:52:34.774Z,0
2019-03-05T00:53:16.763Z,0
2019-03-05T00:53:57.142Z,0
2019-03-05T00:54:37.626Z,0
2019-03-05T00:55:17.955Z,0
2019-03-05T00:56:00.039Z,0
2019-03-05T00:56:40.863Z,0
2019-03-05T00:57:21.408Z,0
2019-03-05T00:58:01.780Z,0
2019-03-05T00:58:44.247Z,0
2019-03-05T00:59:24.688Z,0
2019-03-05T01:00:05.187Z,0
2019-03-05T01:00:46.519Z,0
2019-03-05T01:01:27.240Z,0
2019-03-05T01:02:07.601Z,0
2019-03-05T01:02:51.817Z,0
2019-03-05T01:03:34.165Z,0
2019-03-05T01:04:17.820Z,0
2019-03-05T01:04:58.328Z,0
2019-03-05T01:05:42.241Z,0
2019-03-05T01:06:22.775Z,0
2019-03-05T01:07:03.261Z,0
2019-03-05T01:07:43.589Z,0
2019-03-05T01:08:24.119Z,0
2019-03-05T01:09:06.066Z,0
2019-03-05T01:09:48.109Z,0
2019-03-05T01:10:34.241Z,0
2019-03-05T01:11:16.417Z,0
2019-03-05T01:11:56.838Z,0
2019-03-05T01:12:39.142Z,0
2019-03-05T01:13:20.466Z,0
2019-03-05T01:14:00.917Z,0
2019-03-05T01:14:43.649Z,0
2019-03-05T01:15:24.030Z,0
2019-03-05T01:16:07.963Z,0
2019-03-05T01:16:50.408Z,0
2019-03-05T01:17:31.115Z,0
2019-03-05T01:18:14.788Z,0
2019-03-05T01:18:55.227Z,0
2019-03-05T01:19:35.523Z,0
2019-03-05T01:20:16.091Z,0
2019-03-05T01:20:56.478Z,0
2019-03-05T01:21:37.836Z,0
2019-03-05T01:22:18.402Z,0
2019-03-05T01:23:00.034Z,0
2019-03-05T01:23:40.417Z,0
2019-03-05T01:24:22.657Z,0
2019-03-05T01:25:03.128Z,0
2019-03-05T01:25:43.465Z,0
2019-03-05T01:26:27.514Z,0
2019-03-05T01:27:09.468Z,0
2019-03-05T01:27:49.839Z,0
2019-03-05T01:28:31.323Z,0
2019-03-05T01:29:11.742Z,0
2019-03-05T01:29:57.775Z,0
2019-03-05T01:30:42.863Z,0
2019-03-05T01:31:23.538Z,0
2019-03-05T01:32:06.052Z,0
2019-03-05T01:32:48.626Z,0
2019-03-05T01:33:32.657Z,0
2019-03-05T01:34:13.144Z,0
2019-03-05T01:34:54.305Z,0
2019-03-05T01:35:34.670Z,0
2019-03-05T01:36:16.086Z,0
2019-03-05T01:36:56.579Z,0
2019-03-05T01:37:36.982Z,0
2019-03-05T01:38:22.793Z,0
2019-03-05T01:39:03.198Z,0
2019-03-05T01:39:45.469Z,0
2019-03-05T01:40:26.870Z,0
2019-03-05T01:41:08.284Z,0
2019-03-05T01:41:49.965Z,0
2019-03-05T01:42:31.263Z,0
2019-03-05T01:43:11.714Z,0
2019-03-05T01:43:53.950Z,0
2019-03-05T01:44:36.252Z,0
2019-03-05T01:45:16.616Z,0
2019-03-05T01:45:57.041Z,0
2019-03-05T01:46:37.477Z,0
2019-03-05T01:47:20.100Z,0
2019-03-05T01:48:01.180Z,0
2019-03-05T01:48:41.861Z,0
2019-03-05T01:49:22.250Z,0
2019-03-05T01:50:04.442Z,0
2019-03-05T01:50:44.767Z,0
2019-03-05T01:51:26.051Z,0
2019-03-05T01:52:06.431Z,0
2019-03-05T01:52:48.657Z,0
2019-03-05T01:53:29.978Z,0
2019-03-05T01:54:11.924Z,0
2019-03-05T01:54:54.267Z,0
2019-03-05T01:55:36.584Z,0
2019-03-05T01:56:18.751Z,0
2019-03-05T01:56:59.154Z,0
2019-03-05T01:57:41.496Z,0
2019-03-05T01:58:22.018Z,0
2019-03-05T01:59:04.231Z,0
2019-03-05T01:59:46.376Z,0
2019-03-05T02:00:27.600Z,0
2019-03-05T02:01:08.163Z,0
2019-03-05T02:01:48.590Z,0
2019-03-05T02:02:28.967Z,0
2019-03-05T02:03:09.367Z,0
2019-03-05T02:03:51.105Z,0
2019-03-05T02:04:33.429Z,0
2019-03-05T02:05:14.758Z,0
2019-03-05T02:05:55.170Z,0
2019-03-05T02:06:35.559Z,0
2019-03-05T02:07:18.006Z,0
2019-03-05T02:08:01.606Z,0
2019-03-05T02:08:43.980Z,0
2019-03-05T02:09:26.518Z,0
2019-03-05T02:10:08.551Z,0
2019-03-05T02:10:49.173Z,0
2019-03-05T02:11:29.541Z,0
2019-03-05T02:12:11.188Z,0
2019-03-05T02:12:52.484Z,0
2019-03-05T02:13:33.240Z,0
2019-03-05T02:14:13.693Z,0
2019-03-05T02:14:57.101Z,0
2019-03-05T02:15:37.492Z,0
2019-03-05T02:16:18.010Z,0
2019-03-05T02:16:58.681Z,0
2019-03-05T02:17:39.034Z,0
2019-03-05T02:18:21.202Z,0
2019-03-05T02:19:01.554Z,0
2019-03-05T02:19:42.779Z,0
2019-03-05T02:20:24.785Z,0
2019-03-05T02:21:07.907Z,0
2019-03-05T02:21:48.363Z,0
2019-03-05T02:22:29.591Z,0
2019-03-05T02:23:10.970Z,0
2019-03-05T02:23:51.481Z,0
2019-03-05T02:24:33.445Z,0
2019-03-05T02:25:17.442Z,0
2019-03-05T02:26:00.013Z,0
2019-03-05T02:26:40.451Z,0
2019-03-05T02:27:20.738Z,0
2019-03-05T02:28:02.837Z,0
2019-03-05T02:28:43.185Z,0
2019-03-05T02:29:25.451Z,0
2019-03-05T02:30:07.531Z,0
2019-03-05T02:30:48.009Z,0
2019-03-05T02:31:32.046Z,0
2019-03-05T02:32:13.945Z,0
2019-03-05T02:32:55.006Z,0
2019-03-05T02:33:35.474Z,0
2019-03-05T02:34:17.079Z,0
2019-03-05T02:34:57.493Z,0
2019-03-05T02:35:37.888Z,0
2019-03-05T02:36:18.275Z,0
2019-03-05T02:36:58.650Z,0
2019-03-05T02:37:39.413Z,0
2019-03-05T02:38:19.847Z,0
2019-03-05T02:39:00.167Z,0
2019-03-05T02:39:45.227Z,0
2019-03-05T02:40:26.104Z,0
2019-03-05T02:41:08.101Z,0
2019-03-05T02:41:48.683Z,0
2019-03-05T02:42:29.072Z,0
2019-03-05T02:43:13.333Z,0
2019-03-05T02:43:53.914Z,0
2019-03-05T02:44:34.348Z,0
2019-03-05T02:45:16.516Z,0
2019-03-05T02:49:02.497Z,0
2019-03-05T02:49:47.858Z,0
2019-03-05T02:50:28.501Z,0
2019-03-05T02:51:08.872Z,0
2019-03-05T02:51:49.809Z,0
2019-03-05T02:52:30.309Z,0
2019-03-05T02:53:10.981Z,0
2019-03-05T02:53:51.470Z,0
2019-03-05T02:54:32.509Z,0
2019-03-05T02:55:13.952Z,0
2019-03-05T02:55:55.422Z,0
2019-03-05T02:56:39.333Z,0
2019-03-05T02:57:19.879Z,0
2019-03-05T02:58:00.646Z,0
2019-03-05T02:58:41.037Z,0
2019-03-05T02:59:21.504Z,0
2019-03-05T03:00:02.016Z,0
2019-03-05T03:00:42.798Z,0
2019-03-05T03:01:23.298Z,0
2019-03-05T03:02:03.818Z,0
2019-03-05T03:02:44.312Z,0
2019-03-05T03:03:24.697Z,0
2019-03-05T03:04:05.125Z,0
2019-03-05T03:04:45.700Z,0
2019-03-05T03:05:26.174Z,0
2019-03-05T03:06:06.530Z,0
2019-03-05T03:06:47.239Z,0
2019-03-05T03:07:27.756Z,0
2019-03-05T03:08:08.166Z,0
2019-03-05T03:08:48.642Z,0
2019-03-05T03:09:29.066Z,0
2019-03-05T03:10:09.458Z,0
2019-03-05T03:10:50.075Z,0
2019-03-05T03:11:30.548Z,0
2019-03-05T03:12:11.158Z,0
2019-03-05T03:12:51.916Z,0
2019-03-05T03:13:32.350Z,0
2019-03-05T03:14:12.938Z,0
2019-03-05T03:14:53.342Z,0
2019-03-05T03:15:33.780Z,0
2019-03-05T03:16:14.179Z,0
2019-03-05T03:16:55.204Z,0
2019-03-05T03:17:35.709Z,0
2019-03-05T03:18:16.254Z,0
2019-03-05T03:18:56.707Z,0
2019-03-05T03:19:37.114Z,0
2019-03-05T03:20:17.869Z,0
2019-03-05T03:20:58.266Z,0
2019-03-05T03:21:38.814Z,0
2019-03-05T03:22:19.344Z,0
2019-03-05T03:23:00.332Z,0
2019-03-05T03:23:40.989Z,0
2019-03-05T03:24:21.594Z,0
2019-03-05T03:25:02.194Z,0
2019-03-05T03:25:42.835Z,0
2019-03-05T03:26:23.382Z,0
2019-03-05T03:27:04.366Z,0
2019-03-05T03:27:44.814Z,0
2019-03-05T03:28:25.477Z,0
2019-03-05T03:29:05.950Z,0
2019-03-05T03:29:47.117Z,0
2019-03-05T03:30:27.982Z,0
2019-03-05T03:31:08.472Z,0
2019-03-05T03:31:49.285Z,0
2019-03-05T03:32:29.988Z,0
2019-03-05T03:33:11.423Z,0
2019-03-05T03:33:52.820Z,0
2019-03-05T03:34:33.430Z,0
2019-03-05T03:35:13.851Z,0
2019-03-05T03:35:54.276Z,0
2019-03-05T03:36:34.741Z,0
2019-03-05T03:37:16.068Z,0
2019-03-05T03:37:57.030Z,0
2019-03-05T03:38:37.655Z,0
2019-03-05T03:39:18.130Z,0
2019-03-05T03:39:59.702Z,0
2019-03-05T03:40:40.343Z,0
2019-03-05T03:41:21.052Z,0
2019-03-05T03:42:02.629Z,0
2019-03-05T03:42:42.942Z,0
2019-03-05T03:43:23.805Z,0
2019-03-05T03:44:04.565Z,0
2019-03-05T03:44:47.537Z,0
2019-03-05T03:45:28.933Z,0
2019-03-05T03:48:03.075Z,0
2019-03-05T03:50:44.296Z,0
2019-03-05T03:51:26.669Z,0
2019-03-05T03:52:06.731Z,0
2019-03-05T03:52:47.320Z,0
2019-03-05T03:53:27.858Z,0
2019-03-05T03:54:08.423Z,0
2019-03-05T03:54:48.751Z,0
2019-03-05T03:55:29.354Z,0
2019-03-05T03:56:09.799Z,0
2019-03-05T03:56:50.295Z,0
2019-03-05T03:57:30.904Z,0
2019-03-05T03:58:11.792Z,0
2019-03-05T03:58:52.196Z,0
2019-03-05T04:01:32.227Z,0
2019-03-05T04:02:12.989Z,0
2019-03-05T04:02:54.075Z,0
2019-03-05T04:03:35.113Z,0
2019-03-05T04:04:17.212Z,0
2019-03-05T04:04:58.324Z,0
2019-03-05T04:07:00.561Z,0
2019-03-05T04:07:40.992Z,0
2019-03-05T04:08:21.347Z,0
2019-03-05T04:09:01.680Z,0
2019-03-05T04:09:42.077Z,0
2019-03-05T04:10:22.491Z,0
2019-03-05T04:11:03.189Z,0
2019-03-05T04:11:44.790Z,0
2019-03-05T04:12:25.462Z,0
2019-03-05T04:13:06.465Z,0
2019-03-05T04:13:48.695Z,0
2019-03-05T04:22:41.929Z,0
2019-03-05T04:23:22.794Z,0
2019-03-05T04:24:03.644Z,0
2019-03-05T04:24:44.314Z,0
2019-03-05T04:25:24.944Z,0
2019-03-05T04:26:05.475Z,0
2019-03-05T05:09:34.480Z,0
2019-03-05T05:10:14.516Z,0
2019-03-05T05:10:54.866Z,0
2019-03-05T05:11:35.426Z,0
2019-03-05T05:12:16.618Z,0
2019-03-05T05:12:57.945Z,0
2019-03-05T05:13:38.436Z,0
2019-03-05T05:14:19.643Z,0
2019-03-05T05:15:00.123Z,0
2019-03-05T05:15:41.137Z,0
2019-03-05T05:16:21.886Z,0
2019-03-05T05:17:02.741Z,0
2019-03-05T05:17:43.340Z,0
2019-03-05T05:18:23.744Z,0
2019-03-05T05:19:04.200Z,0
2019-03-05T05:19:44.679Z,0
2019-03-05T05:20:25.098Z,0
2019-03-05T05:21:05.531Z,0
2019-03-05T05:21:45.880Z,0
2019-03-05T05:22:26.557Z,0
2019-03-05T05:23:06.966Z,0
2019-03-05T05:23:47.611Z,0
2019-03-05T05:24:28.843Z,0
2019-03-05T05:25:09.535Z,0
2019-03-05T05:25:50.138Z,0
2019-03-05T05:26:30.789Z,0
2019-03-05T05:27:11.234Z,0
2019-03-05T05:27:53.859Z,0
2019-03-05T05:28:34.951Z,0
2019-03-05T05:29:15.242Z,0
2019-03-05T05:29:55.888Z,0
2019-03-05T05:30:37.003Z,0
2019-03-05T05:31:17.526Z,0
2019-03-05T05:31:58.531Z,0
2019-03-05T05:32:38.636Z,0
2019-03-05T05:33:19.061Z,0
2019-03-05T05:33:59.462Z,0
2019-03-05T05:34:39.874Z,0
2019-03-05T05:35:20.495Z,0
2019-03-05T05:36:01.050Z,0
2019-03-05T05:36:41.702Z,0
2019-03-05T05:37:22.063Z,0
2019-03-05T05:38:02.599Z,0
2019-03-05T05:38:43.042Z,0
2019-03-05T05:39:23.414Z,0
2019-03-05T05:40:04.891Z,0
2019-03-05T05:40:44.667Z,0
2019-03-05T05:41:25.442Z,0
2019-03-05T05:42:05.865Z,0
2019-03-05T05:42:46.532Z,0
2019-03-05T05:43:26.885Z,0
2019-03-05T05:44:07.578Z,0
2019-03-05T05:44:48.026Z,0
2019-03-05T05:45:28.558Z,0
2019-03-05T05:46:08.959Z,0
2019-03-05T05:46:49.621Z,0
2019-03-05T05:47:29.976Z,0
2019-03-05T05:48:10.758Z,0
2019-03-05T05:48:51.610Z,0
2019-03-05T05:49:32.485Z,0
2019-03-05T05:52:10.006Z,0
2019-03-05T05:52:52.378Z,0
2019-03-05T05:53:33.284Z,0
2019-03-05T05:54:14.633Z,0
2019-03-05T05:54:57.520Z,0
2019-03-05T05:55:38.891Z,0
2019-03-05T05:56:19.960Z,0
2019-03-05T05:57:00.324Z,0
2019-03-05T05:57:41.144Z,0
2019-03-05T05:58:22.120Z,0
2019-03-05T05:59:03.191Z,0
2019-03-05T05:59:44.006Z,0
2019-03-05T06:00:25.433Z,4
2019-03-05T06:01:06.012Z,4
2019-03-05T06:01:46.520Z,4
2019-03-05T06:02:27.479Z,4
2019-03-05T06:03:08.515Z,4
2019-03-05T06:03:49.048Z,4
2019-03-05T06:04:34.309Z,0
2019-03-05T06:05:13.573Z,0
2019-03-05T06:08:47.534Z,4
2019-03-05T06:09:30.562Z,4
2019-03-05T06:10:11.658Z,4
2019-03-05T06:10:55.131Z,4
2019-03-05T06:11:35.864Z,4
2019-03-05T06:14:09.622Z,4
2019-03-05T06:14:50.608Z,4
2019-03-05T06:15:31.148Z,4
2019-03-05T06:16:11.608Z,8
2019-03-05T06:16:52.126Z,8
2019-03-05T06:17:33.928Z,8
2019-03-05T06:18:14.264Z,8
2019-03-05T06:18:54.644Z,8
2019-03-05T06:19:35.040Z,8
2019-03-05T06:20:16.600Z,8
2019-03-05T06:20:57.209Z,8
2019-03-05T06:21:37.646Z,8
2019-03-05T06:22:18.079Z,12
2019-03-05T06:22:59.982Z,8
2019-03-05T06:23:40.888Z,12
2019-03-05T06:24:23.774Z,12
2019-03-05T06:25:03.869Z,8
2019-03-05T06:25:44.338Z,12
2019-03-05T06:26:24.671Z,12
2019-03-05T06:27:05.727Z,16
2019-03-05T06:27:48.878Z,12
2019-03-05T06:28:29.315Z,16
2019-03-05T06:29:10.049Z,20
2019-03-05T06:29:57.045Z,20
2019-03-05T06:30:37.640Z,20
2019-03-05T06:31:18.079Z,24
2019-03-05T06:32:00.191Z,28
2019-03-05T06:32:42.266Z,24
2019-03-05T06:33:25.147Z,24
2019-03-05T06:34:05.928Z,24
2019-03-05T06:34:52.502Z,20
2019-03-05T06:35:35.124Z,20
2019-03-05T06:36:16.410Z,20
2019-03-05T06:37:06.298Z,24
2019-03-05T06:37:50.183Z,20
2019-03-05T06:38:31.026Z,24
2019-03-05T06:39:11.418Z,24
2019-03-05T06:39:51.806Z,24
2019-03-05T06:40:32.435Z,28
2019-03-05T06:41:14.554Z,28
2019-03-05T06:41:56.492Z,28
2019-03-05T06:42:37.285Z,32
2019-03-05T06:43:17.850Z,32
2019-03-05T06:43:58.174Z,32
2019-03-05T06:44:39.648Z,36
2019-03-05T06:45:21.067Z,40
2019-03-05T06:46:01.746Z,40
2019-03-05T06:46:45.258Z,40
2019-03-05T06:47:27.563Z,40
2019-03-05T06:48:08.975Z,40
2019-03-05T06:48:49.924Z,44
2019-03-05T06:49:31.142Z,48
2019-03-05T06:50:12.570Z,48
2019-03-05T06:50:52.811Z,44
2019-03-05T06:51:33.445Z,44
2019-03-05T06:52:13.915Z,48
2019-03-05T06:52:54.962Z,56
2019-03-05T06:53:35.501Z,60
2019-03-05T06:54:16.176Z,64
2019-03-05T06:54:56.544Z,64
2019-03-05T06:55:37.040Z,68
2019-03-05T06:56:18.187Z,76
2019-03-05T06:56:58.571Z,68
2019-03-05T06:57:39.061Z,64
2019-03-05T06:58:19.958Z,72
2019-03-05T06:59:00.578Z,72
2019-03-05T06:59:41.609Z,76
2019-03-05T07:00:22.106Z,80
2019-03-05T07:01:02.583Z,76
2019-03-05T07:01:43.565Z,80
2019-03-05T07:02:24.063Z,80
2019-03-05T07:03:04.974Z,80
2019-03-05T07:03:45.856Z,80
2019-03-05T07:04:26.189Z,80
2019-03-05T07:05:06.765Z,76
2019-03-05T07:05:50.254Z,76
2019-03-05T07:06:30.005Z,76
2019-03-05T07:07:11.250Z,80
2019-03-05T07:07:52.859Z,84
2019-03-05T07:08:37.204Z,88
2019-03-05T07:11:58.974Z,108
2019-03-05T07:14:10.630Z,108
2019-03-05T07:14:54.748Z,112
2019-03-05T07:15:35.341Z,124
2019-03-05T07:16:16.912Z,136
2019-03-05T07:16:57.553Z,136
2019-03-05T07:17:39.798Z,136
2019-03-05T07:18:23.626Z,124
2019-03-05T07:19:03.495Z,120
2019-03-05T07:19:57.487Z,124
2019-03-05T07:20:30.772Z,136
2019-03-05T07:21:11.190Z,144
2019-03-05T07:21:52.801Z,152
2019-03-05T07:22:36.165Z,164
2019-03-05T07:23:18.624Z,176
2019-03-05T07:24:00.586Z,192
2019-03-05T07:24:45.286Z,200
2019-03-05T07:25:26.019Z,224
2019-03-05T07:26:08.705Z,272
2019-03-05T07:26:49.548Z,284
2019-03-05T07:31:25.868Z,316
2019-03-05T07:33:31.151Z,220
2019-03-05T07:34:24.489Z,228
2019-03-05T07:39:40.421Z,292
2019-03-05T07:49:46.325Z,588
2019-03-05T07:50:43.234Z,556
2019-03-05T07:51:23.382Z,508
2019-03-05T07:52:03.721Z,460
2019-03-05T07:52:44.807Z,444
2019-03-05T07:53:25.394Z,388
2019-03-05T07:54:05.841Z,344
2019-03-05T07:54:52.304Z,324
2019-03-05T07:55:29.616Z,332
2019-03-05T07:56:11.297Z,328
2019-03-05T07:56:52.796Z,336
2019-03-05T07:57:34.815Z,340
2019-03-05T07:58:16.785Z,332
2019-03-05T07:58:57.628Z,320
2019-03-05T07:59:47.861Z,336
2019-03-05T08:00:28.612Z,380
2019-03-05T08:01:09.715Z,420
2019-03-05T08:01:50.175Z,388
2019-03-05T08:02:30.683Z,408
2019-03-05T08:03:11.541Z,372
2019-03-05T08:03:52.111Z,348
2019-03-05T08:04:33.531Z,360
2019-03-05T08:05:14.363Z,356
2019-03-05T08:05:58.035Z,360
2019-03-05T08:06:40.105Z,376
2019-03-05T08:07:22.080Z,364
2019-03-05T08:08:02.896Z,392
2019-03-05T08:08:43.457Z,424
2019-03-05T08:09:24.093Z,400
2019-03-05T08:10:05.921Z,368
2019-03-05T08:10:46.227Z,400
2019-03-05T08:11:27.731Z,372
2019-03-05T08:12:07.453Z,368
2019-03-05T08:12:47.887Z,348
2019-03-05T08:13:28.548Z,308
2019-03-05T08:14:09.251Z,308
2019-03-05T08:14:50.225Z,324
2019-03-05T08:15:31.671Z,328
2019-03-05T08:16:11.854Z,328
2019-03-05T08:16:54.602Z,340
2019-03-05T08:17:35.023Z,380
2019-03-05T08:18:16.590Z,428
2019-03-05T08:18:58.003Z,404
2019-03-05T08:19:38.412Z,408
2019-03-05T08:20:22.136Z,444
2019-03-05T08:21:03.123Z,484
2019-03-05T08:21:43.343Z,536
2019-03-05T08:22:25.785Z,496
2019-03-05T08:23:09.326Z,532
2019-03-05T08:23:49.397Z,576
2019-03-05T08:24:31.428Z,584
2019-03-05T08:25:12.212Z,532
2019-03-05T08:25:53.526Z,536
2019-03-05T08:26:34.032Z,524
2019-03-05T08:27:15.499Z,512
2019-03-05T08:27:56.405Z,496
2019-03-05T08:28:37.042Z,516
2019-03-05T08:29:19.888Z,564
2019-03-05T08:30:13.420Z,548
2019-03-05T08:30:43.431Z,532
2019-03-05T08:31:27.694Z,560
2019-03-05T08:32:09.564Z,556
2019-03-05T08:32:50.635Z,528
2019-03-05T08:41:21.295Z,652
2019-03-05T08:42:05.554Z,668
2019-03-05T08:42:47.130Z,576
2019-03-05T08:43:39.612Z,532
2019-03-05T08:44:24.530Z,556
2019-03-05T08:45:09.848Z,592
2019-03-05T08:45:50.230Z,568
2019-03-05T08:46:33.277Z,492
2019-03-05T08:47:16.325Z,516
2019-03-05T08:48:01.669Z,528
2019-03-05T08:48:45.995Z,544
2019-03-05T08:49:31.242Z,544
2019-03-05T08:50:19.419Z,540
2019-03-05T08:51:09.022Z,488
2019-03-05T08:51:52.400Z,496
2019-03-05T08:52:34.736Z,560
2019-03-05T08:53:15.101Z,688
2019-03-05T08:53:55.579Z,920
2019-03-05T08:54:37.184Z,1044
2019-03-05T08:55:21.471Z,1008
2019-03-05T08:56:07.424Z,952
2019-03-05T08:56:51.924Z,916
2019-03-05T08:57:34.103Z,952
2019-03-05T08:58:15.548Z,996
2019-03-05T08:58:57.866Z,1012
2019-03-05T08:59:39.302Z,944
2019-03-05T09:00:25.571Z,920
2019-03-05T09:01:11.753Z,884
2019-03-05T09:03:44.957Z,840
2019-03-05T09:04:30.384Z,700
2019-03-05T09:05:14.704Z,624
2019-03-05T09:05:56.355Z,592
2019-03-05T09:06:37.282Z,580
2019-03-05T09:07:19.593Z,512
2019-03-05T09:08:00.795Z,432
2019-03-05T09:08:47.223Z,392
2019-03-05T09:09:29.154Z,376
2019-03-05T09:10:13.565Z,368
2019-03-05T09:10:54.082Z,420
2019-03-05T09:11:37.458Z,496
2019-03-05T09:12:20.074Z,648
2019-03-05T09:13:03.434Z,708
2019-03-05T09:13:47.314Z,828
2019-03-05T09:14:34.187Z,992
2019-03-05T09:15:16.671Z,996
2019-03-05T09:16:00.981Z,928
2019-03-05T09:16:41.669Z,912
2019-03-05T09:17:24.621Z,872
2019-03-05T09:18:07.221Z,844
2019-03-05T09:18:51.692Z,852
2019-03-05T09:19:35.836Z,792
2019-03-05T09:20:20.994Z,780
2019-03-05T09:21:03.507Z,836
2019-03-05T09:21:49.202Z,876
2019-03-05T09:22:30.239Z,900
2019-03-05T09:25:49.263Z,780
2019-03-05T09:27:55.290Z,528
2019-03-05T09:28:36.029Z,452
2019-03-05T09:29:16.457Z,436
2019-03-05T09:29:59.617Z,436
2019-03-05T09:30:42.888Z,396
2019-03-05T09:31:25.384Z,476
2019-03-05T09:32:12.044Z,488
2019-03-05T09:32:58.852Z,460
2019-03-05T09:33:43.191Z,468
2019-03-05T09:34:25.233Z,616
2019-03-05T09:35:05.650Z,768
2019-03-05T09:37:31.399Z,684
2019-03-05T09:38:10.236Z,652
2019-03-05T09:38:51.970Z,628
2019-03-05T09:39:32.365Z,588
2019-03-05T09:40:12.993Z,568
2019-03-05T09:40:53.917Z,548
2019-03-05T09:41:34.341Z,592
2019-03-05T09:42:15.328Z,604
2019-03-05T09:42:55.970Z,600
2019-03-05T09:43:39.717Z,628
2019-03-05T09:44:20.792Z,624
2019-03-05T09:45:01.323Z,676
2019-03-05T09:45:46.117Z,660
2019-03-05T09:46:27.736Z,716
2019-03-05T09:47:09.343Z,696
2019-03-05T09:47:49.983Z,652
2019-03-05T09:48:31.807Z,612
2019-03-05T09:49:12.035Z,624
2019-03-05T09:49:52.679Z,676
2019-03-05T09:50:33.375Z,720
2019-03-05T09:51:14.313Z,752
2019-03-05T09:51:54.707Z,632
2019-03-05T09:52:36.244Z,640
2019-03-05T09:53:17.378Z,640
2019-03-05T09:53:58.598Z,684
2019-03-05T09:54:40.818Z,692
2019-03-05T09:55:22.207Z,672
2019-03-05T09:56:03.409Z,636
2019-03-05T09:56:43.707Z,696
2019-03-05T09:57:27.884Z,764
2019-03-05T09:58:09.676Z,996
2019-03-05T09:58:50.602Z,908
2019-03-05T09:59:32.007Z,1080
2019-03-05T10:00:12.838Z,1120
2019-03-05T10:00:53.165Z,988
2019-03-05T10:01:35.759Z,816
2019-03-05T10:02:16.926Z,752
2019-03-05T10:02:59.017Z,748
2019-03-05T10:03:39.630Z,872
2019-03-05T10:04:20.443Z,964
2019-03-05T10:05:01.095Z,940
2019-03-05T10:05:41.720Z,1004
2019-03-05T10:06:22.721Z,976
2019-03-05T10:07:03.907Z,1004
2019-03-05T10:07:45.269Z,996
2019-03-05T10:08:32.223Z,1016
2019-03-05T10:09:06.470Z,1016
2019-03-05T10:09:46.921Z,1108
2019-03-05T10:10:28.151Z,1168
2019-03-05T10:11:09.735Z,1232
2019-03-05T10:11:56.500Z,1152
2019-03-05T10:12:31.998Z,1096
2019-03-05T10:13:13.467Z,1100
2019-03-05T10:13:54.138Z,1096
2019-03-05T10:14:39.862Z,1320
2019-03-05T10:15:21.187Z,1492
2019-03-05T10:16:02.221Z,1548
2019-03-05T10:16:42.724Z,1520
2019-03-05T10:17:25.407Z,1392
2019-03-05T10:18:12.504Z,1324
2019-03-05T10:18:49.711Z,1268
2019-03-05T10:21:14.638Z,1060
2019-03-05T10:21:54.964Z,960
2019-03-05T10:22:37.540Z,932
2019-03-05T10:23:20.703Z,928
2019-03-05T10:24:09.902Z,952
2019-03-05T10:24:42.707Z,864
2019-03-05T10:25:24.333Z,860
2019-03-05T10:26:10.520Z,816
2019-03-05T10:26:53.601Z,812
2019-03-05T10:27:37.655Z,780
2019-03-05T10:28:19.709Z,784
2019-03-05T10:29:02.388Z,824
2019-03-05T11:07:11.568Z,1536
2019-03-05T11:07:48.799Z,1484
2019-03-05T11:08:32.209Z,1404
2019-03-05T11:09:14.468Z,1360
2019-03-05T11:09:56.484Z,1380
2019-03-05T11:21:01.454Z,1760
2019-03-05T11:21:43.762Z,1940
2019-03-05T11:22:25.395Z,1792
2019-03-05T11:23:06.820Z,1768
2019-03-05T11:23:47.428Z,1588
2019-03-05T11:24:32.489Z,1576
2019-03-05T11:25:12.993Z,1748
2019-03-05T11:25:54.746Z,1952
2019-03-05T11:26:36.666Z,1904
2019-03-05T11:27:20.008Z,1736
2019-03-05T11:28:00.458Z,1600
2019-03-05T11:28:43.061Z,1832
2019-03-05T11:29:23.884Z,1808
2019-03-05T11:30:11.079Z,1944
2019-03-05T11:30:54.148Z,1944
2019-03-05T11:31:34.852Z,1648
2019-03-05T11:32:16.998Z,1360
2019-03-05T11:32:58.912Z,1148
2019-03-05T11:33:39.389Z,1304
2019-03-05T11:34:21.425Z,1272
2019-03-05T11:35:01.912Z,1212
2019-03-05T11:35:42.670Z,1448
2019-03-05T11:36:23.047Z,1732
2019-03-05T11:37:05.501Z,1652
2019-03-05T11:37:49.613Z,1364
2019-03-05T11:38:32.724Z,1160
2019-03-05T11:39:17.902Z,952
2019-03-05T11:40:00.927Z,872
2019-03-05T11:40:41.784Z,848
2019-03-05T11:41:24.165Z,852
2019-03-05T11:42:05.100Z,776
2019-03-05T11:42:51.485Z,784
2019-03-05T11:43:33.958Z,852
2019-03-05T11:50:22.944Z,1240
2019-03-05T11:51:04.799Z,1232
2019-03-05T11:51:46.862Z,1392
2019-03-05T11:52:27.251Z,1564
2019-03-05T11:53:07.790Z,1524
2019-03-05T11:53:48.428Z,1492
2019-03-05T11:54:29.003Z,1504
2019-03-05T11:55:11.430Z,1576
2019-03-05T11:55:52.233Z,1672
2019-03-05T11:56:32.811Z,1536
2019-03-05T11:57:16.519Z,1508
2019-03-05T11:58:01.533Z,1532
2019-03-05T11:58:42.284Z,1628
2019-03-05T12:08:35.482Z,1264
2019-03-05T12:16:57.504Z,728
2019-03-05T12:19:21.719Z,856
2019-03-05T12:20:05.195Z,984
2019-03-05T12:20:49.691Z,1052
2019-03-05T12:21:35.658Z,1156
2019-03-05T12:22:19.147Z,1376
2019-03-05T12:23:02.221Z,1308
2019-03-05T12:23:47.137Z,1320
2019-03-05T12:24:28.217Z,1404
2019-03-05T12:25:09.113Z,1452
2019-03-05T12:25:53.623Z,1436
2019-03-05T12:26:35.826Z,1420
2019-03-05T12:27:20.188Z,1352
2019-03-05T12:28:09.622Z,1428
2019-03-05T12:28:42.489Z,1372
2019-03-05T12:29:24.581Z,1260
2019-03-05T12:30:06.700Z,1216
2019-03-05T12:30:47.759Z,1156
2019-03-05T12:31:30.976Z,1256
2019-03-05T12:32:11.916Z,1484
2019-03-05T12:32:54.873Z,1296
2019-03-05T12:33:35.310Z,1216
2019-03-05T12:34:19.233Z,1236
2019-03-05T12:35:00.618Z,1240
2019-03-05T12:35:45.922Z,1220
2019-03-05T12:36:28.308Z,1168
2019-03-05T12:37:09.761Z,1240
2019-03-05T12:37:52.005Z,1380
2019-03-05T12:38:33.779Z,1392
2019-03-05T12:39:14.536Z,1120
2019-03-05T12:39:56.782Z,940
2019-03-05T12:40:37.658Z,1076
2019-03-05T12:41:29.163Z,1156
2019-03-05T12:42:12.262Z,988
2019-03-05T12:42:56.867Z,1020
2019-03-05T12:43:38.067Z,1080
2019-03-05T12:44:23.334Z,1132
2019-03-05T12:45:09.122Z,1180
2019-03-05T12:45:50.721Z,1316
2019-03-05T12:46:31.393Z,1480
2019-03-05T12:47:15.883Z,1576
2019-03-05T12:47:54.815Z,1512
2019-03-05T12:48:39.767Z,1544
2019-03-05T12:49:17.054Z,1648
2019-03-05T13:05:04.305Z,1664
2019-03-05T13:05:45.652Z,1336
2019-03-05T13:06:27.219Z,1388
2019-03-05T13:07:07.576Z,1460
2019-03-05T13:07:48.024Z,1560
2019-03-05T13:08:32.434Z,1436
2019-03-05T13:09:19.450Z,1296
2019-03-05T13:10:02.041Z,1368